Time;durP1;ratioP1;P1;durP2;ratioP2;P2;SDS_P1;SDS_P2;PMS_P1;PMS_P2;Temp;Humidity;BMP_temperature;BMP_pressure;BME280_temperature;BME280_humidity;BME280_pressure;Samples;Min_cycle;Max_cycle;Signal;HPM_P1;HPM_P2
2023/10/18 00:02:49;;;;;;;1999.90;999.90;;;8.60;99.90;;;;;;5084209;28;20463;-68
2023/10/18 00:05:20;;;;;;;1999.90;999.90;;;8.60;99.90;;;;;;5103579;28;20425;-66
2023/10/18 00:07:46;;;;;;;1999.90;999.90;;;8.60;99.90;;;;;;5112045;28;20199;-68
2023/10/18 00:10:12;;;;;;;1999.90;999.90;;;8.50;99.90;;;;;;5111781;28;20764;-68
2023/10/18 00:12:39;;;;;;;1999.90;999.90;;;8.50;99.90;;;;;;5105769;28;20565;-67
2023/10/18 00:15:06;;;;;;;1999.90;999.90;;;8.50;99.90;;;;;;5098537;28;20986;-66
2023/10/18 00:17:32;;;;;;;1999.90;999.90;;;8.40;99.90;;;;;;5111979;28;20409;-67
2023/10/18 00:19:58;;;;;;;1999.90;999.90;;;8.40;99.90;;;;;;5107175;28;20856;-67
2023/10/18 00:22:24;;;;;;;1999.90;999.90;;;8.40;99.90;;;;;;5111580;28;20435;-67
2023/10/18 00:24:49;;;;;;;1999.90;999.90;;;8.40;99.90;;;;;;5107583;28;20768;-67
2023/10/18 00:27:15;;;;;;;1999.90;999.90;;;8.40;99.90;;;;;;5115757;28;20615;-67
2023/10/18 00:29:43;;;;;;;1999.90;999.90;;;8.40;99.90;;;;;;5105693;28;20195;-67
2023/10/18 00:32:09;;;;;;;1999.90;999.90;;;8.40;99.90;;;;;;5107023;28;20241;-67
2023/10/18 00:34:35;;;;;;;1999.90;999.90;;;8.40;99.90;;;;;;5107061;28;20920;-67
2023/10/18 00:37:00;;;;;;;1999.90;999.90;;;8.40;99.90;;;;;;5115584;28;20462;-68
2023/10/18 00:39:32;;;;;;;1999.90;999.90;;;8.40;99.90;;;;;;5115368;28;20556;-67
2023/10/18 00:44:42;;;;;;;1999.90;999.90;;;8.30;99.90;;;;;;5104586;28;20436;-66
2023/10/18 00:47:10;;;;;;;1999.90;999.90;;;8.30;99.90;;;;;;5106798;28;20501;-66
2023/10/18 00:49:36;;;;;;;1999.90;999.90;;;8.30;99.90;;;;;;5115196;28;20171;-66
2023/10/18 00:52:02;;;;;;;1999.90;999.90;;;8.30;99.90;;;;;;5111125;28;20464;-67
2023/10/18 00:54:29;;;;;;;1999.90;999.90;;;8.30;99.90;;;;;;5106605;28;20881;-66
2023/10/18 00:56:55;;;;;;;1999.90;999.90;;;8.30;99.90;;;;;;5115223;28;20225;-66
2023/10/18 00:59:21;;;;;;;1999.90;999.90;;;8.30;99.90;;;;;;5102288;28;20424;-66
2023/10/18 01:01:57;;;;;;;1999.90;999.90;;;8.30;99.90;;;;;;5105515;28;20497;-66
2023/10/18 01:04:24;;;;;;;1999.90;999.90;;;8.30;99.90;;;;;;5113106;28;20191;-66
2023/10/18 01:06:50;;;;;;;1999.90;999.90;;;8.20;99.90;;;;;;5106323;28;20422;-66
2023/10/18 01:09:17;;;;;;;1999.90;999.90;;;8.20;99.90;;;;;;5105777;28;20448;-66
2023/10/18 01:11:46;;;;;;;1999.90;999.90;;;8.20;99.90;;;;;;5104914;28;20449;-66
2023/10/18 01:14:16;;;;;;;1999.90;999.90;;;8.10;99.90;;;;;;5097388;28;20422;-67
2023/10/18 01:16:44;;;;;;;1999.90;999.90;;;8.10;99.90;;;;;;5103611;28;20933;-66
2023/10/18 01:19:11;;;;;;;1999.90;999.90;;;8.10;99.90;;;;;;5106051;28;20404;-67
2023/10/18 01:21:36;;;;;;;1999.90;999.90;;;8.10;99.90;;;;;;5105507;28;20531;-66
2023/10/18 01:24:13;;;;;;;1999.90;999.90;;;8.10;99.90;;;;;;5106366;28;20490;-66
2023/10/18 01:26:39;;;;;;;1999.90;999.90;;;8.10;99.90;;;;;;5114158;28;20183;-66
2023/10/18 01:29:08;;;;;;;1999.90;999.90;;;8.10;99.90;;;;;;5103536;28;20512;-67
2023/10/18 01:31:34;;;;;;;1999.90;999.90;;;8.10;99.90;;;;;;5100556;28;20455;-66
2023/10/18 01:34:02;;;;;;;1999.90;999.90;;;8.10;99.90;;;;;;5105898;28;20407;-67
2023/10/18 01:36:32;;;;;;;1999.90;999.90;;;8.10;99.90;;;;;;5114313;28;20408;-67
2023/10/18 01:38:58;;;;;;;1999.90;999.90;;;8.10;99.90;;;;;;5114173;28;20413;-67
2023/10/18 01:46:48;;;;;;;1999.90;999.90;;;8.10;99.90;;;;;;5093629;28;20797;-66
2023/10/18 01:49:19;;;;;;;1999.90;999.90;;;8.10;99.90;;;;;;5105544;28;20482;-66
2023/10/18 01:51:47;;;;;;;1999.90;999.90;;;8.10;99.90;;;;;;5109318;28;20437;-66
2023/10/18 01:54:13;;;;;;;1999.90;999.90;;;8.10;99.90;;;;;;5105679;28;20403;-66
2023/10/18 01:56:41;;;;;;;1999.90;999.90;;;8.10;99.90;;;;;;5114224;28;20918;-66
2023/10/18 01:59:28;;;;;;;1999.90;999.90;;;8.10;99.90;;;;;;5113767;28;20476;-67
2023/10/18 02:01:56;;;;;;;1999.90;999.90;;;8.10;99.90;;;;;;5109806;28;20454;-66
2023/10/18 02:04:26;;;;;;;1999.90;999.90;;;8.10;99.90;;;;;;5105442;28;20423;-66
2023/10/18 02:06:57;;;;;;;1999.90;999.90;;;8.10;99.90;;;;;;5113932;28;20413;-65
2023/10/18 02:09:35;;;;;;;1999.90;999.90;;;8.10;99.90;;;;;;5113495;28;20452;-67
2023/10/18 02:12:08;;;;;;;1999.90;999.90;;;8.00;99.90;;;;;;5113622;28;20536;-67
2023/10/18 02:14:33;;;;;;;1999.90;999.90;;;8.00;99.90;;;;;;5113738;28;20882;-67
2023/10/18 02:17:06;;;;;;;1999.90;999.90;;;8.10;99.90;;;;;;5111452;28;20502;-66
2023/10/18 02:19:32;;;;;;;1999.90;999.90;;;8.10;99.90;;;;;;5104920;28;20181;-66
2023/10/18 02:21:58;;;;;;;1999.90;999.90;;;8.10;99.90;;;;;;5113424;28;20504;-66
2023/10/18 02:24:24;;;;;;;1999.90;999.90;;;8.00;99.90;;;;;;5113600;28;20278;-68
2023/10/18 02:27:02;;;;;;;1999.90;999.90;;;8.00;99.90;;;;;;5113373;28;20450;-68
2023/10/18 02:29:28;;;;;;;1999.90;999.90;;;8.00;99.90;;;;;;5113189;28;20544;-68
2023/10/18 02:31:57;;;;;;;1999.90;999.90;;;8.10;99.90;;;;;;5113260;28;20459;-67
2023/10/18 02:34:25;;;;;;;1999.90;999.90;;;8.00;99.90;;;;;;5113265;28;20202;-67
2023/10/18 02:36:52;;;;;;;1999.90;999.90;;;8.00;99.90;;;;;;5113201;28;20418;-66
2023/10/18 02:39:30;;;;;;;1999.90;999.90;;;8.00;99.90;;;;;;5113079;28;20410;-68
2023/10/18 02:41:58;;;;;;;1999.90;999.90;;;8.10;99.90;;;;;;5113241;28;20424;-67
2023/10/18 02:44:24;;;;;;;1999.90;999.90;;;8.00;99.90;;;;;;5113153;28;20409;-67
2023/10/18 02:46:54;;;;;;;1999.90;999.90;;;8.00;99.90;;;;;;5112714;28;20445;-68
2023/10/18 02:49:22;;;;;;;1999.90;999.90;;;8.00;99.90;;;;;;5104148;28;20460;-67
2023/10/18 02:51:48;;;;;;;1999.90;999.90;;;8.10;99.90;;;;;;5113051;28;20473;-66
2023/10/18 02:54:17;;;;;;;1999.90;999.90;;;8.00;99.90;;;;;;5113092;28;20480;-67
2023/10/18 02:56:49;;;;;;;1999.90;999.90;;;8.00;99.90;;;;;;5112893;28;20462;-67
2023/10/18 02:59:25;;;;;;;1999.90;999.90;;;8.00;99.90;;;;;;5112688;28;20412;-66
2023/10/18 03:01:54;;;;;;;1999.90;999.90;;;8.00;99.90;;;;;;5112988;28;20838;-68
2023/10/18 03:04:22;;;;;;;1999.90;999.90;;;7.90;99.90;;;;;;5112665;28;20484;-68
2023/10/18 03:06:50;;;;;;;1999.90;999.90;;;7.90;99.90;;;;;;5112996;28;20412;-66
2023/10/18 03:12:01;;;;;;;1999.90;999.90;;;7.90;99.90;;;;;;5112459;28;20965;-67
2023/10/18 03:14:39;;;;;;;1999.90;999.90;;;8.00;99.90;;;;;;5112837;28;20489;-66
2023/10/18 03:17:19;;;;;;;1999.90;999.90;;;7.80;99.90;;;;;;5112737;28;20407;-65
2023/10/18 03:19:50;;;;;;;1999.90;999.90;;;7.90;99.90;;;;;;5112481;28;20403;-66
2023/10/18 03:22:22;;;;;;;1999.90;999.90;;;7.80;99.90;;;;;;5112499;28;20428;-65
2023/10/18 03:24:55;;;;;;;1999.90;999.90;;;7.80;99.90;;;;;;5112800;28;20843;-66
2023/10/18 03:27:21;;;;;;;1999.90;999.90;;;7.80;99.90;;;;;;5112543;28;20442;-66
2023/10/18 03:29:47;;;;;;;1999.90;999.90;;;7.80;99.90;;;;;;5112230;28;20408;-65
2023/10/18 03:32:19;;;;;;;1999.90;999.90;;;7.80;99.90;;;;;;5112285;28;20986;-66
2023/10/18 03:34:45;;;;;;;1999.90;999.90;;;7.80;99.90;;;;;;5112415;28;20160;-66
2023/10/18 03:37:26;;;;;;;1999.90;999.90;;;7.80;99.90;;;;;;5112298;28;20411;-66
2023/10/18 03:39:55;;;;;;;1999.90;999.90;;;7.80;99.90;;;;;;5112154;28;20493;-66
2023/10/18 03:42:33;;;;;;;1999.90;999.90;;;7.80;99.90;;;;;;5112325;28;20435;-66
2023/10/18 03:45:10;;;;;;;1999.90;999.90;;;7.80;99.90;;;;;;5112352;28;20399;-66
2023/10/18 03:47:41;;;;;;;1999.90;999.90;;;7.80;99.90;;;;;;5107324;28;20474;-67
2023/10/18 03:50:15;;;;;;;1999.90;999.90;;;7.80;99.90;;;;;;5103869;28;20408;-66
2023/10/18 03:52:41;;;;;;;1999.90;999.90;;;7.80;99.90;;;;;;5116460;28;20881;-66
2023/10/18 03:55:22;;;;;;;1999.90;999.90;;;7.80;99.90;;;;;;5116420;28;20481;-65
2023/10/18 03:57:54;;;;;;;1999.90;999.90;;;7.80;99.90;;;;;;5116373;28;20395;-67
2023/10/18 04:03:07;;;;;;;1999.90;999.90;;;7.70;99.90;;;;;;5116294;28;20524;-66
2023/10/18 04:08:04;;;;;;;1999.90;999.90;;;7.70;99.90;;;;;;5116141;28;20991;-66
2023/10/18 04:10:31;;;;;;;1999.90;999.90;;;7.70;99.90;;;;;;5115820;28;20429;-66
2023/10/18 04:12:56;;;;;;;1999.90;999.90;;;7.80;99.90;;;;;;5116141;28;20424;-66
2023/10/18 04:15:23;;;;;;;1999.90;999.90;;;7.70;99.90;;;;;;5116123;28;21009;-66
2023/10/18 04:18:35;;;;;;;1999.90;999.90;;;7.80;99.90;;;;;;5116018;28;20249;-66
2023/10/18 04:20:35;;;;;;;1999.90;999.90;;;7.80;99.90;;;;;;5108116;28;20503;-67
2023/10/18 04:23:34;;;;;;;1999.90;999.90;;;7.70;99.90;;;;;;5115807;28;20428;-66
2023/10/18 04:25:57;;;;;;;1999.90;999.90;;;7.70;99.90;;;;;;5113590;28;20442;-66
2023/10/18 04:28:29;;;;;;;1999.90;999.90;;;7.70;99.90;;;;;;5115741;28;20450;-65
2023/10/18 04:31:01;;;;;;;1999.90;999.90;;;7.90;99.90;;;;;;5115705;28;20471;-66
2023/10/18 04:33:49;;;;;;;1999.90;999.90;;;7.70;99.90;;;;;;5115653;28;20401;-66
2023/10/18 04:36:15;;;;;;;1999.90;999.90;;;7.80;99.90;;;;;;5115681;28;20951;-65
2023/10/18 04:38:43;;;;;;;1999.90;999.90;;;7.70;99.90;;;;;;5115429;28;20426;-65
2023/10/18 04:41:10;;;;;;;1999.90;999.90;;;8.30;99.90;;;;;;5115506;28;20641;-65
2023/10/18 04:43:36;;;;;;;1999.90;999.90;;;7.80;99.90;;;;;;5115475;28;20408;-67
2023/10/18 04:51:44;;;;;;;1999.90;999.90;;;7.80;99.90;;;;;;5115463;28;20421;-65
2023/10/18 04:54:15;;;;;;;1999.90;999.90;;;7.80;99.90;;;;;;5115216;28;20401;-66
2023/10/18 04:56:44;;;;;;;1999.90;999.90;;;7.90;99.90;;;;;;5115403;28;20405;-66
2023/10/18 04:59:19;;;;;;;1999.90;999.90;;;7.80;99.90;;;;;;5115098;28;20405;-67
2023/10/18 05:04:28;;;;;;;1999.90;999.90;;;7.90;99.90;;;;;;5115206;28;20497;-66
2023/10/18 05:06:58;;;;;;;1999.90;999.90;;;7.90;99.90;;;;;;5115242;28;20824;-67
2023/10/18 05:09:32;;;;;;;1999.90;999.90;;;7.90;99.90;;;;;;5114892;28;20464;-65
2023/10/18 05:11:59;;;;;;;1999.90;999.90;;;7.90;99.90;;;;;;5114724;28;20482;-66
2023/10/18 05:15:29;;;;;;;1999.90;999.90;;;7.90;99.90;;;;;;5114925;28;20505;-66
2023/10/18 05:17:28;;;;;;;1999.90;999.90;;;7.90;99.90;;;;;;5105419;28;20410;-65
2023/10/18 05:19:56;;;;;;;1999.90;999.90;;;7.90;99.90;;;;;;5114634;28;20441;-66
2023/10/18 05:22:25;;;;;;;1999.90;999.90;;;7.90;99.90;;;;;;5114572;28;20923;-67
2023/10/18 05:25:11;;;;;;;1999.90;999.90;;;7.80;99.90;;;;;;5114607;28;20433;-66
2023/10/18 05:27:38;;;;;;;1999.90;999.90;;;7.80;99.90;;;;;;5114474;28;20490;-66
2023/10/18 05:30:14;;;;;;;1999.90;999.90;;;7.80;99.90;;;;;;5114556;28;20418;-66
2023/10/18 05:32:49;;;;;;;1999.90;999.90;;;7.80;99.90;;;;;;5114596;28;20501;-66
2023/10/18 05:35:26;;;;;;;1999.90;999.90;;;7.80;99.90;;;;;;5114648;28;20825;-66
2023/10/18 05:37:59;;;;;;;1999.90;999.90;;;7.70;99.90;;;;;;5114381;28;20399;-65
2023/10/18 05:43:13;;;;;;;1999.90;999.90;;;7.80;99.90;;;;;;5114517;28;20538;-66
2023/10/18 05:45:42;;;;;;;1999.90;999.90;;;7.70;99.90;;;;;;5114231;28;20534;-66
2023/10/18 05:48:17;;;;;;;1999.90;999.90;;;7.70;99.90;;;;;;5114155;28;20451;-67
2023/10/18 05:50:49;;;;;;;1999.90;999.90;;;7.60;99.90;;;;;;5114307;28;20415;-66
2023/10/18 05:53:18;;;;;;;1999.90;999.90;;;7.60;99.90;;;;;;5114205;28;20432;-66
2023/10/18 05:55:52;;;;;;;1999.90;999.90;;;7.60;99.90;;;;;;5114333;28;20501;-67
2023/10/18 05:58:25;;;;;;;1999.90;999.90;;;7.60;99.90;;;;;;5114049;28;20420;-68
2023/10/18 06:00:52;;;;;;;1999.90;999.90;;;7.60;99.90;;;;;;5113711;28;20782;-68
2023/10/18 06:03:19;;;;;;;1999.90;999.90;;;7.60;99.90;;;;;;5114084;28;20428;-68
2023/10/18 06:05:45;;;;;;;1999.90;999.90;;;7.60;99.90;;;;;;5113895;28;20410;-67
2023/10/18 06:08:13;;;;;;;1999.90;999.90;;;7.60;99.90;;;;;;5113816;28;20448;-67
2023/10/18 06:10:39;;;;;;;1999.90;999.90;;;7.60;99.90;;;;;;5113596;28;20189;-66
2023/10/18 06:13:10;;;;;;;1999.90;999.90;;;7.60;99.90;;;;;;5113215;28;20416;-68
2023/10/18 06:15:39;;;;;;;1999.90;999.90;;;7.60;99.90;;;;;;5113765;28;20167;-68
2023/10/18 06:18:09;;;;;;;1999.90;999.90;;;7.60;99.90;;;;;;5113637;28;20429;-68
2023/10/18 06:20:38;;;;;;;1999.90;999.90;;;7.60;99.90;;;;;;5113552;28;20399;-67
2023/10/18 06:23:17;;;;;;;1999.90;999.90;;;7.70;99.90;;;;;;5113482;28;20455;-68
2023/10/18 06:25:49;;;;;;;1999.90;999.90;;;7.70;99.90;;;;;;5113466;28;20398;-67
2023/10/18 06:28:21;;;;;;;1999.90;999.90;;;7.70;99.90;;;;;;5113509;28;20447;-67
2023/10/18 06:30:51;;;;;;;1999.90;999.90;;;7.70;99.90;;;;;;5113415;28;20427;-68
2023/10/18 06:33:19;;;;;;;1999.90;999.90;;;7.70;99.90;;;;;;5113486;28;20428;-67
2023/10/18 06:35:51;;;;;;;1999.90;999.90;;;7.80;99.90;;;;;;5113390;28;20421;-68
2023/10/18 06:38:24;;;;;;;1999.90;999.90;;;7.80;99.90;;;;;;5113248;28;20518;-67
2023/10/18 06:41:03;;;;;;;1999.90;999.90;;;7.80;99.90;;;;;;5113032;28;20425;-68
2023/10/18 06:43:30;;;;;;;1999.90;999.90;;;7.80;99.90;;;;;;5113291;28;20413;-67
2023/10/18 06:45:57;;;;;;;1999.90;999.90;;;7.90;99.90;;;;;;5113066;28;20400;-67
2023/10/18 06:48:26;;;;;;;1999.90;999.90;;;7.90;99.90;;;;;;5113039;28;20825;-68
2023/10/18 06:50:53;;;;;;;1999.90;999.90;;;8.00;99.90;;;;;;5112766;28;20423;-68
2023/10/18 06:53:20;;;;;;;1999.90;999.90;;;8.00;99.90;;;;;;5113008;28;20471;-67
2023/10/18 06:55:55;;;;;;;1999.90;999.90;;;8.00;99.90;;;;;;5113093;28;20413;-67
2023/10/18 07:00:51;;;;;;;1999.90;999.90;;;8.10;99.90;;;;;;5112765;28;20499;-66
2023/10/18 07:03:17;;;;;;;1999.90;999.90;;;8.20;99.90;;;;;;5112695;28;20427;-66
2023/10/18 07:05:46;;;;;;;1999.90;999.90;;;8.20;99.90;;;;;;5113090;28;20413;-67
2023/10/18 07:08:19;;;;;;;1999.90;999.90;;;8.20;99.90;;;;;;5112540;28;20632;-66
2023/10/18 07:10:57;;;;;;;1999.90;999.90;;;8.30;99.90;;;;;;5112365;28;20440;-66
2023/10/18 07:13:38;;;;;;;1999.90;999.90;;;8.30;99.90;;;;;;5112602;28;20395;-66
2023/10/18 07:16:06;;;;;;;1999.90;999.90;;;8.30;99.90;;;;;;5104126;28;20412;-66
2023/10/18 07:18:36;;;;;;;1999.90;999.90;;;8.40;99.90;;;;;;5104016;28;20810;-66
2023/10/18 07:21:05;;;;;;;1999.90;999.90;;;8.60;99.90;;;;;;5112558;28;20404;-66
2023/10/18 07:23:36;;;;;;;1999.90;999.90;;;8.40;99.90;;;;;;5102090;28;20442;-67
2023/10/18 07:26:07;;;;;;;1999.90;999.90;;;8.50;99.90;;;;;;5110755;28;20900;-66
2023/10/18 07:28:35;;;;;;;1999.90;999.90;;;8.60;99.90;;;;;;5112421;28;20800;-66
2023/10/18 07:31:08;;;;;;;1999.90;999.90;;;8.50;99.90;;;;;;5112472;28;20411;-67
2023/10/18 07:33:41;;;;;;;1999.90;999.90;;;8.70;99.90;;;;;;5112442;28;20454;-67
2023/10/18 07:36:18;;;;;;;1999.90;999.90;;;8.80;99.90;;;;;;5112523;28;20440;-66
2023/10/18 07:38:55;;;;;;;1999.90;999.90;;;8.80;99.90;;;;;;5098184;28;20413;-67
2023/10/18 07:41:26;;;;;;;1999.90;999.90;;;8.90;99.90;;;;;;5093734;28;20431;-66
2023/10/18 07:43:53;;;;;;;1999.90;999.90;;;9.00;99.90;;;;;;5092127;28;20407;-66
2023/10/18 07:46:18;;;;;;;1999.90;999.90;;;9.10;99.90;;;;;;5091976;28;20441;-66
2023/10/18 07:48:47;;;;;;;1999.90;999.90;;;9.20;99.90;;;;;;5091648;28;20953;-66
2023/10/18 07:51:23;;;;;;;1999.90;999.90;;;9.70;99.90;;;;;;5091769;28;20169;-66
2023/10/18 07:53:51;;;;;;;1999.90;999.90;;;9.30;99.90;;;;;;5091872;28;20432;-66
2023/10/18 07:56:16;;;;;;;1999.90;999.90;;;9.40;99.90;;;;;;5091785;28;20489;-66
2023/10/18 07:58:49;;;;;;;1999.90;999.90;;;9.50;99.90;;;;;;5091695;28;20419;-66
2023/10/18 08:01:24;;;;;;;1999.90;999.90;;;9.50;99.90;;;;;;5091761;28;20220;-67
2023/10/18 08:03:52;;;;;;;1999.90;999.90;;;9.50;99.90;;;;;;5091788;28;20441;-66
2023/10/18 08:06:26;;;;;;;1999.90;999.90;;;9.50;99.90;;;;;;5091725;28;20447;-66
2023/10/18 08:08:52;;;;;;;1999.90;999.90;;;9.50;99.90;;;;;;5088719;28;20209;-67
2023/10/18 08:11:17;;;;;;;1999.90;999.90;;;9.60;99.90;;;;;;5091095;28;20504;-67
2023/10/18 08:13:45;;;;;;;1999.90;999.90;;;9.60;99.90;;;;;;5091243;28;20806;-66
2023/10/18 08:16:19;;;;;;;1999.90;999.90;;;9.50;99.90;;;;;;5090929;28;20178;-67
2023/10/18 08:18:53;;;;;;;1999.90;999.90;;;9.50;99.90;;;;;;5091162;28;20776;-66
2023/10/18 08:21:39;;;;;;;1999.90;999.90;;;9.50;99.90;;;;;;5091274;28;20426;-67
2023/10/18 08:24:25;;;;;;;1999.90;999.90;;;9.60;99.90;;;;;;5086303;28;20444;-67
2023/10/18 08:26:51;;;;;;;1999.90;999.90;;;9.60;99.90;;;;;;5085858;28;20420;-68
2023/10/18 08:29:17;;;;;;;1999.90;999.90;;;9.70;99.90;;;;;;5086650;28;20452;-67
2023/10/18 08:31:55;;;;;;;1999.90;999.90;;;9.70;99.90;;;;;;5086229;28;20489;-68
2023/10/18 08:34:23;;;;;;;1999.90;999.90;;;9.80;99.90;;;;;;5091688;28;20544;-67
2023/10/18 08:37:01;;;;;;;1999.90;999.90;;;10.10;99.90;;;;;;5090479;28;20418;-67
2023/10/18 08:39:27;;;;;;;1999.90;999.90;;;10.10;99.90;;;;;;5097154;28;20500;-66
2023/10/18 08:42:14;;;;;;;1999.90;999.90;;;10.20;99.90;;;;;;5091036;28;20444;-67
2023/10/18 08:44:40;;;;;;;1999.90;999.90;;;10.30;99.90;;;;;;5090161;28;20415;-66
2023/10/18 08:49:34;;;;;;;1999.90;999.90;;;10.50;99.90;;;;;;5089743;28;20511;-66
2023/10/18 08:52:08;;;;;;;1999.90;999.90;;;10.70;99.90;;;;;;5091435;28;20489;-67
2023/10/18 08:54:36;;;;;;;1999.90;999.90;;;10.80;99.90;;;;;;5102013;28;20532;-67
2023/10/18 08:57:08;;;;;;;1999.90;999.90;;;10.90;99.90;;;;;;5111055;28;20407;-67
2023/10/18 08:59:43;;;;;;;1999.90;999.90;;;11.00;99.90;;;;;;5110766;28;20423;-67
2023/10/18 09:02:21;;;;;;;1999.90;999.90;;;11.10;99.90;;;;;;5110917;28;20427;-67
2023/10/18 09:04:52;;;;;;;1999.90;999.90;;;11.20;99.90;;;;;;5111193;28;20418;-67
2023/10/18 09:07:21;;;;;;;1999.90;999.90;;;11.20;99.90;;;;;;5109856;28;20510;-67
2023/10/18 09:09:58;;;;;;;1999.90;999.90;;;11.20;99.90;;;;;;5110046;28;20870;-65
2023/10/18 09:15:27;;;;;;;1999.90;999.90;;;11.20;99.90;;;;;;5109662;28;20407;-67
2023/10/18 09:17:55;;;;;;;1999.90;999.90;;;11.40;99.90;;;;;;5110681;28;20460;-67
2023/10/18 09:20:25;;;;;;;1999.90;999.90;;;11.50;99.90;;;;;;5109946;28;20511;-67
2023/10/18 09:22:52;;;;;;;1999.90;999.90;;;11.50;99.90;;;;;;5109358;28;20440;-67
2023/10/18 09:25:23;;;;;;;1999.90;999.90;;;11.60;99.90;;;;;;5109764;28;20416;-67
2023/10/18 09:27:52;;;;;;;1999.90;999.90;;;11.70;99.90;;;;;;5110109;28;20826;-67
2023/10/18 09:30:20;;;;;;;1999.90;999.90;;;11.80;99.90;;;;;;5110316;28;21300;-67
2023/10/18 09:32:47;;;;;;;1999.90;999.90;;;11.80;99.90;;;;;;5109774;28;20432;-68
2023/10/18 09:35:13;;;;;;;1999.90;999.90;;;11.90;99.90;;;;;;5109399;28;20407;-67
2023/10/18 09:37:39;;;;;;;1999.90;999.90;;;12.10;99.90;;;;;;5110164;28;20983;-68
2023/10/18 09:40:06;;;;;;;1999.90;999.90;;;12.20;99.90;;;;;;5108216;28;20496;-67
2023/10/18 09:42:31;;;;;;;1999.90;999.90;;;12.20;99.90;;;;;;5109400;28;20189;-67
2023/10/18 09:44:59;;;;;;;1999.90;999.90;;;12.40;99.90;;;;;;5110349;28;20408;-67
2023/10/18 09:47:26;;;;;;;1999.90;999.90;;;12.50;99.90;;;;;;5109528;28;20174;-68
2023/10/18 09:49:55;;;;;;;1999.90;999.90;;;12.60;99.90;;;;;;5108403;28;20457;-68
2023/10/18 09:52:23;;;;;;;1999.90;999.90;;;12.70;99.90;;;;;;5109576;28;20432;-68
2023/10/18 09:54:50;;;;;;;1999.90;999.90;;;12.80;99.60;;;;;;5089559;28;20824;-67
2023/10/18 09:57:24;;;;;;;1999.90;999.90;;;12.70;97.70;;;;;;5088416;28;20948;-68
2023/10/18 09:59:57;;;;;;;1999.90;999.90;;;12.70;97.70;;;;;;5088202;28;20412;-67
2023/10/18 10:02:24;;;;;;;1999.90;999.90;;;12.90;97.50;;;;;;5087658;28;20430;-67
2023/10/18 10:04:54;;;;;;;1999.90;999.90;;;12.90;97.40;;;;;;5088996;28;20428;-67
2023/10/18 10:07:37;;;;;;;1999.90;999.90;;;13.10;97.30;;;;;;5089284;28;20802;-68
2023/10/18 10:10:09;;;;;;;1999.90;999.90;;;13.20;96.10;;;;;;5087364;28;20438;-67
2023/10/18 10:12:42;;;;;;;1999.90;999.90;;;13.30;95.90;;;;;;5089498;28;20534;-68
2023/10/18 10:15:13;;;;;;;1999.90;999.90;;;13.50;96.40;;;;;;5088806;28;20423;-67
2023/10/18 10:17:55;;;;;;;1999.90;999.90;;;13.70;95.20;;;;;;5088245;28;20416;-68
2023/10/18 10:20:21;;;;;;;1999.90;999.90;;;13.90;93.60;;;;;;5089044;28;20465;-68
2023/10/18 10:22:48;;;;;;;1999.90;999.90;;;14.10;93.50;;;;;;5088202;28;20459;-67
2023/10/18 10:25:31;;;;;;;1999.90;999.90;;;14.30;92.10;;;;;;5088243;28;20417;-67
2023/10/18 10:27:59;;;;;;;1999.90;999.90;;;14.50;90.90;;;;;;5088351;28;20448;-68
2023/10/18 10:30:35;;;;;;;1999.90;999.90;;;14.60;89.20;;;;;;5088090;28;20422;-67
2023/10/18 10:33:05;;;;;;;1999.90;999.90;;;14.70;84.30;;;;;;5088501;28;20485;-67
2023/10/18 10:35:35;;;;;;;1999.90;999.90;;;14.70;83.00;;;;;;5088761;28;20408;-67
2023/10/18 10:38:01;;;;;;;1999.90;999.90;;;14.80;84.10;;;;;;5087960;28;20420;-68
2023/10/18 10:43:03;;;;;;;1999.90;999.90;;;15.00;78.70;;;;;;5087796;28;20230;-67
2023/10/18 10:45:35;;;;;;;1999.90;999.90;;;15.10;78.10;;;;;;5088519;28;20431;-67
2023/10/18 10:48:15;;;;;;;1999.90;999.90;;;15.10;77.20;;;;;;5088746;28;20821;-68
2023/10/18 10:50:59;;;;;;;1999.90;999.90;;;15.30;74.90;;;;;;5088155;28;20927;-68
2023/10/18 10:53:31;;;;;;;1999.90;999.90;;;15.40;73.30;;;;;;5087793;28;20427;-68
2023/10/18 10:55:57;;;;;;;1999.90;999.90;;;15.60;75.10;;;;;;5087885;28;20412;-68
2023/10/18 10:58:29;;;;;;;1999.90;999.90;;;15.70;68.90;;;;;;5088394;28;20837;-68
2023/10/18 11:01:02;;;;;;;1999.90;999.90;;;15.80;68.40;;;;;;5087483;28;20200;-68
2023/10/18 11:03:54;;;;;;;1999.90;999.90;;;15.90;64.20;;;;;;5087700;28;20419;-68
2023/10/18 11:06:24;;;;;;;1999.90;999.90;;;16.10;65.60;;;;;;5087968;28;20449;-68
2023/10/18 11:08:53;;;;;;;1999.90;999.90;;;16.10;59.90;;;;;;5088127;28;21066;-68
2023/10/18 11:11:26;;;;;;;1999.90;999.90;;;16.10;61.70;;;;;;5087432;28;20482;-68
2023/10/18 11:13:52;;;;;;;1999.90;999.90;;;16.20;57.90;;;;;;5087234;28;20418;-68
2023/10/18 11:16:24;;;;;;;1999.90;999.90;;;16.20;58.70;;;;;;5087234;28;20416;-67
2023/10/18 11:18:49;;;;;;;1999.90;999.90;;;16.50;61.20;;;;;;5088082;28;20412;-68
2023/10/18 11:21:21;;;;;;;1999.90;999.90;;;17.30;69.60;;;;;;5087447;28;21164;-68
2023/10/18 11:23:57;;;;;;;1999.90;999.90;;;17.70;55.50;;;;;;5087327;28;20188;-68
2023/10/18 11:26:27;;;;;;;1999.90;999.90;;;18.30;54.60;;;;;;5087321;28;20796;-67
2023/10/18 11:28:58;;;;;;;1999.90;999.90;;;18.40;39.60;;;;;;5086811;28;20462;-67
2023/10/18 11:31:26;;;;;;;1999.90;999.90;;;18.60;39.20;;;;;;5087529;28;20430;-67
2023/10/18 11:33:57;;;;;;;1999.90;999.90;;;18.80;32.70;;;;;;5088191;28;20835;-68
2023/10/18 11:36:27;;;;;;;1999.90;999.90;;;18.70;28.90;;;;;;5086918;28;20419;-68
2023/10/18 11:41:38;;;;;;;1999.90;999.90;;;18.70;26.10;;;;;;5087996;28;20820;-68
2023/10/18 11:44:08;;;;;;;1999.90;999.90;;;19.00;28.30;;;;;;5087125;28;20419;-68
2023/10/18 11:46:58;;;;;;;1999.90;999.90;;;19.30;24.70;;;;;;5087581;28;20423;-68
2023/10/18 11:49:37;;;;;;;1999.90;999.90;;;19.70;21.60;;;;;;5087008;28;20846;-68
2023/10/18 11:52:03;;;;;;;1999.90;999.90;;;20.30;21.40;;;;;;5087397;28;20422;-68
2023/10/18 11:54:34;;;;;;;1999.90;999.90;;;20.80;18.00;;;;;;5087252;28;20786;-68
2023/10/18 11:57:02;;;;;;;1999.90;999.90;;;21.00;15.20;;;;;;5086545;28;20465;-68
2023/10/18 11:59:28;;;;;;;1999.90;999.90;;;21.10;11.30;;;;;;5087730;28;20412;-68
2023/10/18 12:01:55;;;;;;;1999.90;999.90;;;21.10;9.80;;;;;;5087426;28;20493;-68
2023/10/18 12:04:27;;;;;;;1999.90;999.90;;;21.10;10.10;;;;;;5087044;28;20422;-68
2023/10/18 12:06:53;;;;;;;1999.90;999.90;;;21.10;9.00;;;;;;5087246;28;20423;-67
2023/10/18 12:11:44;;;;;;;1999.90;999.90;;;20.70;6.30;;;;;;5088103;28;20577;-67
2023/10/18 12:14:10;;;;;;;1999.90;999.90;;;20.50;6.30;;;;;;5091515;28;20516;-68
2023/10/18 12:16:36;;;;;;;1999.90;999.90;;;20.40;7.90;;;;;;5091556;28;20182;-67
2023/10/18 12:19:02;;;;;;;1999.90;999.90;;;20.50;7.60;;;;;;5090456;28;20186;-67
2023/10/18 12:21:30;;;;;;;1999.90;999.90;;;20.80;7.80;;;;;;5091028;28;20210;-67
2023/10/18 12:23:57;;;;;;;1999.90;999.90;;;20.80;7.00;;;;;;5091775;28;20176;-67
2023/10/18 12:26:24;;;;;;;1999.90;999.90;;;20.70;6.30;;;;;;5090782;28;20530;-66
2023/10/18 12:28:52;;;;;;;1999.90;999.90;;;20.10;5.40;;;;;;5090379;28;20843;-67
2023/10/18 12:31:26;;;;;;;1999.90;999.90;;;19.70;7.70;;;;;;5091625;28;20983;-67
2023/10/18 12:33:57;;;;;;;1999.90;999.90;;;19.50;8.00;;;;;;5091392;28;20777;-67
2023/10/18 12:36:23;;;;;;;1999.90;999.90;;;18.90;8.50;;;;;;5090971;28;20978;-67
2023/10/18 12:38:58;;;;;;;1999.90;999.90;;;18.70;10.20;;;;;;5090239;28;20414;-66
2023/10/18 12:41:33;;;;;;;1999.90;999.90;;;18.80;13.20;;;;;;5090359;28;20433;-66
2023/10/18 12:44:03;;;;;;;1999.90;999.90;;;18.80;13.20;;;;;;5090587;28;20428;-67
2023/10/18 12:46:29;;;;;;;1999.90;999.90;;;18.50;11.60;;;;;;5090675;28;20425;-69
2023/10/18 12:48:57;;;;;;;1999.90;999.90;;;18.10;12.80;;;;;;5093811;28;20453;-66
2023/10/18 12:51:30;;;;;;;1999.90;999.90;;;17.80;14.40;;;;;;5094554;28;20448;-67
2023/10/18 12:53:57;;;;;;;1999.90;999.90;;;17.50;15.50;;;;;;5094535;28;20404;-68
2023/10/18 12:58:59;;;;;;;1999.90;999.90;;;17.10;18.20;;;;;;5094246;28;20920;-67
2023/10/18 13:01:42;;;;;;;1999.90;999.90;;;17.00;19.30;;;;;;5094207;28;20921;-68
2023/10/18 13:04:08;;;;;;;1999.90;999.90;;;16.90;20.30;;;;;;5094601;28;20796;-67
2023/10/18 13:06:43;;;;;;;1999.90;999.90;;;16.90;20.70;;;;;;5094431;28;20407;-66
2023/10/18 13:09:16;;;;;;;1999.90;999.90;;;16.90;21.80;;;;;;5093783;28;20227;-67